createdAt,value
2022-12-14T00:01:48.911Z,-1.90
2022-12-14T00:04:16.515Z,-1.90
2022-12-14T00:06:43.377Z,-1.90
2022-12-14T00:09:10.283Z,-1.90
2022-12-14T00:11:37.185Z,-1.90
2022-12-14T00:14:04.782Z,-1.90
2022-12-14T00:16:34.348Z,-1.90
2022-12-14T00:19:02.143Z,-1.90
2022-12-14T00:21:29.149Z,-2.00
2022-12-14T00:23:57.639Z,-2.00
2022-12-14T00:26:27.126Z,-2.00
2022-12-14T00:28:55.356Z,-2.00
2022-12-14T00:31:23.356Z,-2.10
2022-12-14T00:33:51.177Z,-2.00
2022-12-14T00:36:18.815Z,-2.10
2022-12-14T00:38:45.848Z,-2.10
2022-12-14T00:41:12.795Z,-2.20
2022-12-14T00:43:39.860Z,-2.20
2022-12-14T00:46:07.139Z,-2.20
2022-12-14T00:48:34.572Z,-2.10
2022-12-14T00:51:01.445Z,-2.20
2022-12-14T00:53:28.380Z,-2.20
2022-12-14T00:55:55.627Z,-2.20
2022-12-14T00:58:24.860Z,-2.20
2022-12-14T01:01:12.691Z,-2.30
2022-12-14T01:03:39.996Z,-2.20
2022-12-14T01:06:12.845Z,-2.20
2022-12-14T01:08:39.745Z,-2.20
2022-12-14T01:11:08.507Z,-2.20
2022-12-14T01:13:36.685Z,-2.20
2022-12-14T01:16:14.622Z,-2.20
2022-12-14T01:18:43.354Z,-2.20
2022-12-14T01:21:21.905Z,-2.20
2022-12-14T01:23:52.730Z,-2.20
2022-12-14T01:26:23.130Z,-2.20
2022-12-14T01:28:52.770Z,-2.20
2022-12-14T01:31:22.657Z,-2.10
2022-12-14T01:33:49.770Z,-2.10
2022-12-14T01:36:22.181Z,-2.10
2022-12-14T01:38:53.954Z,-2.10
2022-12-14T01:41:23.923Z,-2.10
2022-12-14T01:43:52.966Z,-2.10
2022-12-14T01:46:41.745Z,-2.20
2022-12-14T01:49:38.821Z,-2.20
2022-12-14T01:52:19.790Z,-2.20
2022-12-14T01:55:02.247Z,-2.20
2022-12-14T01:57:37.459Z,-2.20
2022-12-14T02:00:09.777Z,-2.20
2022-12-14T02:02:45.861Z,-2.20
2022-12-14T02:05:13.885Z,-2.20
2022-12-14T02:07:42.675Z,-2.20
2022-12-14T02:10:16.000Z,-2.20
2022-12-14T02:12:50.988Z,-2.20
2022-12-14T02:15:18.661Z,-2.20
2022-12-14T02:17:46.592Z,-2.20
2022-12-14T02:20:16.038Z,-2.20
2022-12-14T02:23:02.208Z,-2.20
2022-12-14T02:25:59.275Z,-2.20
2022-12-14T02:28:44.723Z,-2.20
2022-12-14T02:31:49.824Z,-2.20
2022-12-14T02:34:53.798Z,-2.20
2022-12-14T02:37:41.741Z,-2.20
2022-12-14T02:40:18.795Z,-2.20
2022-12-14T02:43:06.914Z,-2.20
2022-12-14T02:45:42.075Z,-2.20
2022-12-14T02:48:21.687Z,-2.20
2022-12-14T02:51:10.708Z,-2.30
2022-12-14T02:53:54.276Z,-2.20
2022-12-14T02:56:27.771Z,-2.30
2022-12-14T02:58:55.658Z,-2.20
2022-12-14T03:01:27.696Z,-2.20
2022-12-14T03:03:55.680Z,-2.20
2022-12-14T03:06:27.728Z,-2.20
2022-12-14T03:09:02.512Z,-2.20
2022-12-14T03:11:58.381Z,-2.20
2022-12-14T03:14:33.487Z,-2.20
2022-12-14T03:17:17.633Z,-2.20
2022-12-14T03:20:07.674Z,-2.20
2022-12-14T03:22:48.023Z,-2.20
2022-12-14T03:25:21.950Z,-2.20
2022-12-14T03:27:53.957Z,-2.20
2022-12-14T03:30:43.798Z,-2.20
2022-12-14T03:33:13.779Z,-2.20
2022-12-14T03:35:53.255Z,-2.20
2022-12-14T03:38:23.549Z,-2.20
2022-12-14T03:40:58.356Z,-2.30
2022-12-14T03:43:50.041Z,-2.30
2022-12-14T03:46:42.936Z,-2.30
2022-12-14T03:49:16.677Z,-2.20
2022-12-14T03:52:00.823Z,-2.30
2022-12-14T03:54:47.942Z,-2.30
2022-12-14T03:57:32.774Z,-2.20
2022-12-14T04:00:07.504Z,-2.20
2022-12-14T04:02:47.558Z,-2.20
2022-12-14T04:05:26.610Z,-2.30
2022-12-14T04:08:26.959Z,-2.20
2022-12-14T04:11:17.133Z,-2.30
2022-12-14T04:14:13.274Z,-2.30
2022-12-14T04:17:01.957Z,-2.30
2022-12-14T04:20:02.296Z,-2.30
2022-12-14T04:22:33.093Z,-2.30
2022-12-14T04:25:43.288Z,-2.30
2022-12-14T04:28:35.157Z,-2.20
2022-12-14T04:31:07.920Z,-2.20
2022-12-14T04:33:47.739Z,-2.20
2022-12-14T04:36:22.463Z,-2.20
2022-12-14T04:38:55.797Z,-2.20
2022-12-14T04:41:27.379Z,-2.20
2022-12-14T04:43:57.366Z,-2.20
2022-12-14T04:46:35.178Z,-2.20
2022-12-14T04:49:23.112Z,-2.20
2022-12-14T04:52:07.764Z,-2.20
2022-12-14T04:54:56.696Z,-2.20
2022-12-14T04:57:43.011Z,-2.20
2022-12-14T05:00:10.757Z,-2.20
2022-12-14T05:02:43.542Z,-2.30
2022-12-14T05:05:34.587Z,-2.30
2022-12-14T05:08:18.973Z,-2.30
2022-12-14T05:11:30.248Z,-2.30
2022-12-14T05:13:50.983Z,-2.30
2022-12-14T05:16:20.812Z,-2.30
2022-12-14T05:18:48.199Z,-2.30
2022-12-14T05:21:33.952Z,-2.20
2022-12-14T05:24:02.668Z,-2.30
2022-12-14T05:26:30.823Z,-2.30
2022-12-14T05:28:57.945Z,-2.20
2022-12-14T05:31:25.851Z,-2.20
2022-12-14T05:33:52.905Z,-2.30
2022-12-14T05:36:19.910Z,-2.30
2022-12-14T05:38:47.493Z,-2.30
2022-12-14T05:41:15.170Z,-2.30
2022-12-14T05:43:42.355Z,-2.30
2022-12-14T05:46:12.182Z,-2.30
2022-12-14T05:48:39.246Z,-2.30
2022-12-14T05:51:11.011Z,-2.30
2022-12-14T05:53:38.668Z,-2.30
2022-12-14T05:56:07.756Z,-2.30
2022-12-14T05:58:35.360Z,-2.30
2022-12-14T06:01:04.220Z,-2.30
2022-12-14T06:03:31.772Z,-2.30
2022-12-14T06:06:07.378Z,-2.30
2022-12-14T06:08:38.176Z,-2.30
2022-12-14T06:11:16.756Z,-2.30
2022-12-14T06:13:44.099Z,-2.30
2022-12-14T06:16:20.137Z,-2.30
2022-12-14T06:18:51.932Z,-2.30
2022-12-14T06:21:20.599Z,-2.30
2022-12-14T06:23:47.782Z,-2.30
2022-12-14T06:26:16.177Z,-2.30
2022-12-14T06:28:43.480Z,-2.30
2022-12-14T06:31:19.869Z,-2.40
2022-12-14T06:33:47.669Z,-2.40
2022-12-14T06:36:23.993Z,-2.40
2022-12-14T06:38:52.256Z,-2.40
2022-12-14T06:41:19.857Z,-2.40
2022-12-14T06:43:49.474Z,-2.40
2022-12-14T06:46:20.302Z,-2.40
2022-12-14T06:48:51.585Z,-2.40
2022-12-14T06:51:18.924Z,-2.40
2022-12-14T06:53:46.414Z,-2.40
2022-12-14T06:56:15.543Z,-2.50
2022-12-14T06:58:43.251Z,-2.60
2022-12-14T07:01:16.230Z,-2.60
2022-12-14T07:03:46.962Z,-2.60
2022-12-14T07:06:14.140Z,-2.60
2022-12-14T07:08:41.481Z,-2.60
2022-12-14T07:11:13.655Z,-2.60
2022-12-14T07:13:41.218Z,-2.60
2022-12-14T07:16:12.416Z,-2.70
2022-12-14T07:18:39.418Z,-2.80
2022-12-14T07:21:11.675Z,-2.80
2022-12-14T07:23:40.741Z,-2.90
2022-12-14T07:26:16.043Z,-2.90
2022-12-14T07:28:43.786Z,-2.90
2022-12-14T07:31:14.842Z,-2.90
2022-12-14T07:33:41.963Z,-2.90
2022-12-14T07:36:17.560Z,-2.90
2022-12-14T07:38:46.931Z,-3.00
2022-12-14T07:41:22.811Z,-3.00
2022-12-14T07:43:52.014Z,-3.00
2022-12-14T07:46:24.286Z,-2.90
2022-12-14T07:48:54.039Z,-3.00
2022-12-14T07:51:26.799Z,-3.10
2022-12-14T07:53:54.536Z,-3.00
2022-12-14T07:56:24.974Z,-3.00
2022-12-14T07:58:52.679Z,-3.10
2022-12-14T08:01:31.071Z,-3.10
2022-12-14T08:03:59.530Z,-3.10
2022-12-14T08:06:28.666Z,-3.20
2022-12-14T08:08:58.115Z,-3.20
2022-12-14T08:11:25.536Z,-3.20
2022-12-14T08:14:17.376Z,-3.30
2022-12-14T08:16:45.223Z,-3.40
2022-12-14T08:19:13.119Z,-3.30
2022-12-14T08:21:40.894Z,-3.30
2022-12-14T08:24:12.751Z,-3.40
2022-12-14T08:26:39.963Z,-3.40
2022-12-14T08:29:07.133Z,-3.30
2022-12-14T08:31:34.292Z,-3.30
2022-12-14T08:34:02.192Z,-3.40
2022-12-14T08:36:34.469Z,-3.40
2022-12-14T08:39:07.757Z,-3.40
2022-12-14T08:41:34.888Z,-3.40
2022-12-14T08:44:03.076Z,-3.40
2022-12-14T08:46:31.905Z,-3.40
2022-12-14T08:48:59.404Z,-3.40
2022-12-14T08:51:27.606Z,-3.40
2022-12-14T08:53:55.993Z,-3.40
2022-12-14T08:56:25.443Z,-3.40
2022-12-14T08:58:52.658Z,-3.40
2022-12-14T09:01:32.157Z,-3.40
2022-12-14T09:04:08.422Z,-3.40
2022-12-14T09:06:38.020Z,-3.40
2022-12-14T09:09:09.310Z,-3.50
2022-12-14T09:11:42.561Z,-3.50
2022-12-14T09:14:09.505Z,-3.40
2022-12-14T09:16:37.596Z,-3.40
2022-12-14T09:19:04.546Z,-3.30
2022-12-14T09:21:31.785Z,-3.40
2022-12-14T09:23:59.894Z,-3.40
2022-12-14T09:26:27.404Z,-3.20
2022-12-14T09:28:56.188Z,-3.20
2022-12-14T09:31:26.213Z,-3.00
2022-12-14T09:33:54.939Z,-3.00
2022-12-14T09:36:25.429Z,-3.00
2022-12-14T09:38:55.435Z,-2.90
2022-12-14T09:41:29.014Z,-2.80
2022-12-14T09:44:20.848Z,-2.70
2022-12-14T09:47:20.793Z,-2.60
2022-12-14T09:50:18.476Z,-2.40
2022-12-14T09:53:00.117Z,-2.40
2022-12-14T09:55:37.935Z,-2.40
2022-12-14T09:58:14.943Z,-2.30
2022-12-14T10:00:53.355Z,-2.30
2022-12-14T10:03:49.831Z,-2.30
2022-12-14T10:06:21.295Z,-2.10
2022-12-14T10:09:03.574Z,-2.10
2022-12-14T10:11:59.421Z,-2.00
2022-12-14T10:14:44.694Z,-2.00
2022-12-14T10:17:35.755Z,-1.80
2022-12-14T10:20:28.221Z,-1.70
2022-12-14T10:22:56.256Z,-1.70
2022-12-14T10:25:29.502Z,-1.60
2022-12-14T10:28:15.287Z,-1.70
2022-12-14T10:30:43.447Z,-1.60
2022-12-14T10:33:29.626Z,-1.60
2022-12-14T10:36:29.122Z,-1.60
2022-12-14T10:39:02.082Z,-1.40
2022-12-14T10:42:01.424Z,-1.40
2022-12-14T10:44:49.447Z,-1.30
2022-12-14T10:47:29.755Z,-1.20
2022-12-14T10:50:16.136Z,-1.10
2022-12-14T10:52:45.179Z,-1.10
2022-12-14T10:55:21.043Z,-1.10
2022-12-14T10:57:47.923Z,-1.00
2022-12-14T11:00:25.959Z,-0.90
2022-12-14T11:02:55.916Z,-0.90
2022-12-14T11:05:41.756Z,-0.80
2022-12-14T11:08:09.618Z,-0.80
2022-12-14T11:10:39.639Z,-0.70
2022-12-14T11:13:17.075Z,-0.60
2022-12-14T11:15:48.971Z,-0.60
2022-12-14T11:18:16.181Z,-0.70
2022-12-14T11:20:54.289Z,-0.60
2022-12-14T11:23:30.295Z,-0.40
2022-12-14T11:26:02.387Z,-0.40
2022-12-14T11:28:59.976Z,-0.40
2022-12-14T11:31:32.812Z,-0.40
2022-12-14T11:34:01.783Z,-0.50
2022-12-14T11:36:36.339Z,-0.40
2022-12-14T11:39:07.273Z,-0.30
2022-12-14T11:41:39.759Z,-0.30
2022-12-14T11:44:34.689Z,-0.20
2022-12-14T11:47:08.450Z,-0.10
2022-12-14T11:49:38.140Z,0.00
2022-12-14T11:52:04.983Z,0.00
2022-12-14T11:54:34.368Z,0.00
2022-12-14T11:57:08.550Z,0.10
2022-12-14T11:59:53.270Z,-0.10
2022-12-14T12:02:36.944Z,0.10
2022-12-14T12:05:11.005Z,0.10
2022-12-14T12:07:49.260Z,0.10
2022-12-14T12:10:20.670Z,0.20
2022-12-14T12:12:55.169Z,0.10
2022-12-14T12:15:34.214Z,0.00
2022-12-14T12:18:14.714Z,0.00
2022-12-14T12:21:04.508Z,0.00
2022-12-14T12:23:39.253Z,0.10
2022-12-14T12:26:32.102Z,0.20
2022-12-14T12:29:36.745Z,0.20
2022-12-14T12:32:27.222Z,0.30
2022-12-14T12:35:11.023Z,0.30
2022-12-14T12:37:45.190Z,0.40
2022-12-14T12:40:25.411Z,0.50
2022-12-14T12:42:54.157Z,0.50
2022-12-14T12:45:39.696Z,0.50
2022-12-14T12:48:18.036Z,0.60
2022-12-14T12:50:51.021Z,0.60
2022-12-14T12:53:30.326Z,0.60
2022-12-14T12:56:22.822Z,0.60
2022-12-14T12:58:53.179Z,0.60
2022-12-14T13:01:34.349Z,0.60
2022-12-14T13:04:10.738Z,0.60
2022-12-14T13:07:00.337Z,0.60
2022-12-14T13:09:35.361Z,0.60
2022-12-14T13:12:03.407Z,0.60
2022-12-14T13:14:38.293Z,0.60
2022-12-14T13:17:07.916Z,0.60
2022-12-14T13:19:54.738Z,0.70
2022-12-14T13:22:28.672Z,0.80
2022-12-14T13:24:59.970Z,0.70
2022-12-14T13:27:35.915Z,0.70
2022-12-14T13:30:31.862Z,0.60
2022-12-14T13:33:36.360Z,0.70
2022-12-14T13:36:09.206Z,0.60
2022-12-14T13:39:00.291Z,0.50
2022-12-14T13:41:51.594Z,0.50
2022-12-14T13:44:34.791Z,0.50
2022-12-14T13:47:16.806Z,0.50
2022-12-14T13:50:34.299Z,0.60
2022-12-14T13:52:47.644Z,0.50
2022-12-14T13:55:36.987Z,0.60
2022-12-14T13:58:10.160Z,0.60
2022-12-14T14:00:47.947Z,0.60
2022-12-14T14:03:36.218Z,0.60
2022-12-14T14:06:11.986Z,0.60
2022-12-14T14:08:42.683Z,0.50
2022-12-14T14:14:17.834Z,0.50
2022-12-14T14:16:54.536Z,0.50
2022-12-14T14:19:26.937Z,0.40
2022-12-14T14:22:25.520Z,0.40
2022-12-14T14:25:02.060Z,0.30
2022-12-14T14:27:40.514Z,0.30
2022-12-14T14:30:31.553Z,0.30
2022-12-14T14:33:20.354Z,0.20
2022-12-14T14:35:50.032Z,0.10
2022-12-14T14:38:32.445Z,0.00
2022-12-14T14:41:18.608Z,0.10
2022-12-14T14:43:55.849Z,0.00
2022-12-14T14:46:34.678Z,0.00
2022-12-14T14:49:02.591Z,-0.10
2022-12-14T14:51:34.579Z,-0.10
2022-12-14T14:57:52.217Z,-0.10
2022-12-14T15:00:19.371Z,-0.10
2022-12-14T15:02:46.903Z,-0.20
2022-12-14T15:08:29.181Z,-0.30
2022-12-14T15:10:57.322Z,-0.40
2022-12-14T15:13:28.524Z,-0.40
2022-12-14T15:15:58.682Z,-0.50
2022-12-14T15:18:32.872Z,-0.50
2022-12-14T15:21:04.927Z,-0.60
2022-12-14T15:23:37.578Z,-0.60
2022-12-14T15:26:16.601Z,-0.60
2022-12-14T15:28:48.069Z,-0.60
2022-12-14T15:31:15.465Z,-0.70
2022-12-14T15:33:43.618Z,-0.80
2022-12-14T15:36:18.121Z,-0.80
2022-12-14T15:38:56.090Z,-0.90
2022-12-14T15:41:32.349Z,-0.90
2022-12-14T15:44:00.536Z,-0.90
2022-12-14T15:46:31.748Z,-1.00
2022-12-14T15:49:10.673Z,-1.10
2022-12-14T15:51:43.358Z,-1.10
2022-12-14T15:54:18.842Z,-1.10
2022-12-14T15:56:49.067Z,-1.20
2022-12-14T15:59:19.504Z,-1.20
2022-12-14T16:01:54.158Z,-1.30
2022-12-14T16:04:25.870Z,-1.30
2022-12-14T16:07:09.061Z,-1.30
2022-12-14T16:09:49.926Z,-1.40
2022-12-14T16:12:44.247Z,-1.40
2022-12-14T16:15:29.361Z,-1.40
2022-12-14T16:18:02.218Z,-1.50
2022-12-14T16:20:37.153Z,-1.50
2022-12-14T16:23:13.440Z,-1.50
2022-12-14T16:26:17.289Z,-1.50
2022-12-14T16:28:44.208Z,-1.60
2022-12-14T16:31:19.815Z,-1.60
2022-12-14T16:33:50.154Z,-1.60
2022-12-14T16:36:28.145Z,-1.70
2022-12-14T16:39:04.903Z,-1.70
2022-12-14T16:41:50.839Z,-1.80
2022-12-14T16:44:33.150Z,-1.80
2022-12-14T16:47:18.108Z,-1.80
2022-12-14T16:49:48.153Z,-1.90
2022-12-14T16:52:19.975Z,-1.90
2022-12-14T16:55:11.869Z,-1.90
2022-12-14T16:57:49.549Z,-2.00
2022-12-14T17:00:26.395Z,-2.00
2022-12-14T17:03:07.378Z,-2.00
2022-12-14T17:05:38.204Z,-2.10
2022-12-14T17:08:06.767Z,-2.10
2022-12-14T17:10:34.106Z,-2.10
2022-12-14T17:13:03.386Z,-2.20
2022-12-14T17:15:33.034Z,-2.20
2022-12-14T17:18:01.695Z,-2.20
2022-12-14T17:20:31.746Z,-2.30
2022-12-14T17:23:01.954Z,-2.30
2022-12-14T17:25:31.789Z,-2.30
2022-12-14T17:28:00.936Z,-2.40
2022-12-14T17:30:28.200Z,-2.40
2022-12-14T17:32:56.305Z,-2.50
2022-12-14T17:35:29.873Z,-2.50
2022-12-14T17:37:57.175Z,-2.50
2022-12-14T17:40:24.628Z,-2.60
2022-12-14T17:42:54.636Z,-2.60
2022-12-14T17:45:27.407Z,-2.60
2022-12-14T17:47:55.014Z,-2.60
2022-12-14T17:50:23.032Z,-2.60
2022-12-14T17:52:50.499Z,-2.60
2022-12-14T17:55:26.302Z,-2.60
2022-12-14T17:57:55.108Z,-2.70
2022-12-14T18:00:43.949Z,-2.70
2022-12-14T18:03:12.986Z,-2.80
2022-12-14T18:05:48.151Z,-2.70
2022-12-14T18:08:20.127Z,-2.70
2022-12-14T18:10:49.726Z,-2.80
2022-12-14T18:13:16.614Z,-2.80
2022-12-14T18:15:49.720Z,-2.80
2022-12-14T18:18:22.530Z,-2.90
2022-12-14T18:21:04.481Z,-2.80
2022-12-14T18:23:32.367Z,-2.90
2022-12-14T18:26:02.646Z,-2.90
2022-12-14T18:28:29.787Z,-3.00
2022-12-14T18:31:08.909Z,-3.00
2022-12-14T18:33:36.151Z,-3.00
2022-12-14T18:36:03.130Z,-3.00
2022-12-14T18:38:30.130Z,-3.00
2022-12-14T18:40:58.816Z,-3.00
2022-12-14T18:43:28.125Z,-3.10
2022-12-14T18:45:55.967Z,-3.10
2022-12-14T18:48:24.216Z,-3.10
2022-12-14T18:50:54.301Z,-3.20
2022-12-14T18:53:23.353Z,-3.10
2022-12-14T18:55:50.471Z,-3.20
2022-12-14T18:58:20.853Z,-3.20
2022-12-14T19:00:51.377Z,-3.20
2022-12-14T19:03:19.006Z,-3.20
2022-12-14T19:05:46.842Z,-3.30
2022-12-14T19:08:14.092Z,-3.30
2022-12-14T19:10:45.817Z,-3.30
2022-12-14T19:13:25.311Z,-3.30
2022-12-14T19:15:53.998Z,-3.40
2022-12-14T19:18:21.281Z,-3.40
2022-12-14T19:20:49.363Z,-3.40
2022-12-14T19:23:18.176Z,-3.40
2022-12-14T19:25:48.653Z,-3.50
2022-12-14T19:28:31.437Z,-3.40
2022-12-14T19:31:00.192Z,-3.50
2022-12-14T19:33:27.718Z,-3.50
2022-12-14T19:35:55.110Z,-3.40
2022-12-14T19:38:22.163Z,-3.50
2022-12-14T19:41:07.659Z,-3.50
2022-12-14T19:43:35.438Z,-3.50
2022-12-14T19:46:07.860Z,-3.50
2022-12-14T19:48:35.028Z,-3.50
2022-12-14T19:51:13.226Z,-3.50
2022-12-14T19:53:42.670Z,-3.50
2022-12-14T19:56:10.191Z,-3.50
2022-12-14T19:58:37.211Z,-3.50
2022-12-14T20:01:12.281Z,-3.50
2022-12-14T20:03:39.551Z,-3.50
2022-12-14T20:06:07.249Z,-3.50
2022-12-14T20:08:42.985Z,-3.60
2022-12-14T20:11:11.250Z,-3.60
2022-12-14T20:13:38.433Z,-3.50
2022-12-14T20:16:06.054Z,-3.60
2022-12-14T20:18:33.633Z,-3.60
2022-12-14T20:21:02.999Z,-3.60
2022-12-14T20:23:31.247Z,-3.60
2022-12-14T20:26:03.054Z,-3.60
2022-12-14T20:28:30.062Z,-3.60
2022-12-14T20:30:57.042Z,-3.70
2022-12-14T20:33:29.645Z,-3.70
2022-12-14T20:35:57.116Z,-3.70
2022-12-14T20:38:24.193Z,-3.60
2022-12-14T20:40:52.250Z,-3.70
2022-12-14T20:43:19.578Z,-3.70
2022-12-14T20:45:46.750Z,-3.70
2022-12-14T20:48:13.768Z,-3.70
2022-12-14T20:50:43.090Z,-3.70
2022-12-14T20:53:11.390Z,-3.70
2022-12-14T20:55:38.417Z,-3.70
2022-12-14T20:58:06.391Z,-3.80
2022-12-14T21:00:35.813Z,-3.80
2022-12-14T21:03:03.429Z,-3.80
2022-12-14T21:05:32.063Z,-3.90
2022-12-14T21:07:58.939Z,-3.90
2022-12-14T21:10:25.864Z,-4.00
2022-12-14T21:12:53.052Z,-3.90
2022-12-14T21:15:19.973Z,-3.90
2022-12-14T21:17:46.963Z,-3.80
2022-12-14T21:20:14.106Z,-3.80
2022-12-14T21:22:41.001Z,-3.70
2022-12-14T21:25:08.535Z,-3.80
2022-12-14T21:27:38.796Z,-3.70
2022-12-14T21:30:08.505Z,-3.80
2022-12-14T21:32:37.839Z,-3.80
2022-12-14T21:35:06.869Z,-3.70
2022-12-14T21:37:34.190Z,-3.80
2022-12-14T21:40:04.633Z,-3.90
2022-12-14T21:42:32.027Z,-3.90
2022-12-14T21:44:59.307Z,-3.90
2022-12-14T21:47:29.409Z,-3.90
2022-12-14T21:49:59.844Z,-3.90
2022-12-14T21:52:28.600Z,-3.90
2022-12-14T21:54:55.976Z,-4.00
2022-12-14T21:57:49.861Z,-3.90
2022-12-14T22:00:19.053Z,-3.90
2022-12-14T22:02:46.203Z,-3.90
2022-12-14T22:05:13.931Z,-3.90
2022-12-14T22:07:40.933Z,-3.90
2022-12-14T22:10:08.410Z,-3.90
2022-12-14T22:12:35.458Z,-3.80
2022-12-14T22:15:02.404Z,-3.90
2022-12-14T22:17:29.464Z,-4.00
2022-12-14T22:19:56.773Z,-4.00
2022-12-14T22:22:25.665Z,-3.90
2022-12-14T22:24:53.187Z,-3.90
2022-12-14T22:27:20.677Z,-4.00
2022-12-14T22:29:47.603Z,-4.00
2022-12-14T22:32:15.049Z,-4.00
2022-12-14T22:34:43.518Z,-4.00
2022-12-14T22:37:13.094Z,-3.90
2022-12-14T22:39:40.203Z,-3.90
2022-12-14T22:42:07.078Z,-3.90
2022-12-14T22:44:34.134Z,-3.80
2022-12-14T22:47:02.084Z,-3.90
2022-12-14T22:49:28.996Z,-3.90
2022-12-14T22:51:58.945Z,-3.90
2022-12-14T22:54:27.662Z,-3.90
2022-12-14T22:57:02.800Z,-3.80
2022-12-14T22:59:42.347Z,-3.80
2022-12-14T23:02:09.595Z,-3.90
2022-12-14T23:04:38.200Z,-3.90
2022-12-14T23:07:05.611Z,-3.90
2022-12-14T23:09:52.518Z,-3.70
2022-12-14T23:12:38.407Z,-3.70
2022-12-14T23:15:25.186Z,-3.60
2022-12-14T23:18:19.268Z,-3.60
2022-12-14T23:21:05.705Z,-3.60
2022-12-14T23:23:51.399Z,-3.60
2022-12-14T23:26:37.101Z,-3.50
2022-12-14T23:29:22.709Z,-3.40
2022-12-14T23:32:08.499Z,-3.40
2022-12-14T23:34:53.780Z,-3.40
2022-12-14T23:37:39.473Z,-3.40
2022-12-14T23:40:25.642Z,-3.40
2022-12-14T23:43:11.019Z,-3.40
2022-12-14T23:45:56.835Z,-3.40
2022-12-14T23:48:42.763Z,-3.40
2022-12-14T23:51:28.376Z,-3.40
2022-12-14T23:54:13.950Z,-3.40
2022-12-14T23:56:59.254Z,-3.40
2022-12-14T23:59:49.632Z,-3.40
